Flight Track Log - Related Links

Times and Time Zones

All times are in EDT time to prevent confusion due to time zone crossing. See the UCA4841 flight status page for this flight to view local times or setup timezone preferences in your user account.

Time Position Orientation Groundspeed Altitude Reporting Facility
EDT Latitude Longitude Course Direction KTS MPH feet Rate Location/Type
Thu 10:30:28 AM 43.1042 -77.6897 197° South 133 153 1,000  Level Cleveland Center
Thu 10:31:10 AM 43.0750 -77.7022 197° South 152 175 2,200 1,416 Climbing Cleveland Center
Thu 10:31:57 AM 43.0542 -77.6664 129° Southeast 181 208 3,100 1,377 Climbing Cleveland Center
Thu 10:32:11 AM 43.0442 -77.6506 131° Southeast 183 211 3,600 1,645 Climbing Cleveland Center
Thu 10:32:59 AM 43.0233 -77.6119 126° Southeast 181 208 4,800 1,527 Climbing Cleveland Center
Thu 10:34:01 AM 42.9939 -77.5578 127° Southeast 181 208 6,400 1,500 Climbing Cleveland Center
Thu 10:35:03 AM 42.9531 -77.5175 144° Southeast 184 212 7,900 1,258 Climbing Cleveland Center
Thu 10:36:05 AM 42.9033 -77.4917 159° South 189 217 9,000 1,306 Climbing Cleveland Center
Thu 10:37:07 AM 42.8375 -77.4600 161° South 205 236 10,600 1,355 Climbing Cleveland Center
Thu 10:38:09 AM 42.7825 -77.4342 161° South 208 239 11,800 1,152 Climbing Cleveland Center
Thu 10:39:12 AM 42.7269 -77.4078 161° South 208 239 13,000 1,104 Climbing Cleveland Center
Thu 10:40:14 AM 42.6708 -77.3814 161° South 209 241 14,100 968 Climbing Cleveland Center
Thu 10:41:16 AM 42.6142 -77.3564 162° South 211 243 15,000 435 Climbing Cleveland Center
Thu 10:42:18 AM 42.5511 -77.3275 161° South 238 274 15,000  Level Cleveland Center
Thu 10:43:20 AM 42.4814 -77.2944 161° South 261 300 15,000  Level Cleveland Center
Thu 10:44:22 AM 42.3961 -77.2536 161° South 268 308 15,000  Level Cleveland Center
Thu 10:45:24 AM 42.3247 -77.2208 161° South 269 310 15,000  Level Cleveland Center
Thu 10:46:26 AM 42.2531 -77.1878 161° South 271 312 15,000  Level Cleveland Center
Thu 10:47:28 AM 42.1828 -77.1556 161° South 268 308 15,000  Level Cleveland Center
Thu 10:48:30 AM 42.1108 -77.1247 162° South 271 312 15,000  Level Cleveland Center
Thu 10:49:33 AM 42.0400 -77.0903 160° South 271 312 15,000  Level Cleveland Center
Thu 10:50:35 AM 41.9539 -77.0514 161° South 271 312 15,000  Level Cleveland Center
Thu 10:51:37 AM 41.8825 -77.0197 162° South 271 312 15,000  Level Cleveland Center
Thu 10:52:39 AM 41.8119 -76.9864 161° South 271 312 15,000  Level Cleveland Center
Thu 10:53:41 AM 41.7411 -76.9556 162° South 271 312 15,000  Level Cleveland Center
Thu 10:54:43 AM 41.6697 -76.9219 161° South 271 312 15,000  Level Cleveland Center
Thu 10:55:45 AM 41.5972 -76.9239 181° South 268 308 15,000  Level Cleveland Center
Thu 10:57:07 AM 41.4858 -76.9439 188° South 272 313 15,000  Level New York Center
Thu 10:58:07 AM 41.4122 -76.9592 189° South 272 313 15,000  Level New York Center
Thu 10:59:08 AM 41.3431 -76.9694 186° South 272 313 15,000  Level New York Center
Thu 11:00:09 AM 41.2758 -76.9769 185° South 272 313 15,000  Level New York Center
Thu 11:01:07 AM 41.2044 -76.9897 188° South 272 313 15,000  Level New York Center
Thu 11:02:08 AM 41.1350 -77.0028 188° South 267 307 15,000  Level New York Center
Thu 11:03:09 AM 41.0614 -77.0125 186° South 267 307 15,000  Level New York Center
Thu 11:04:09 AM 40.9919 -77.0253 188° South 262 302 15,000  Level New York Center
Thu 11:05:09 AM 40.9206 -77.0353 186° South 257 296 15,000  Level New York Center
Thu 11:06:08 AM 40.8514 -77.0453 186° South 257 296 15,000  Level New York Center
Thu 11:07:08 AM 40.7797 -77.0581 188° South 257 296 15,000  Level New York Center
Thu 11:08:08 AM 40.7106 -77.0681 186° South 257 296 15,000  Level New York Center
Thu 11:09:10 AM 40.6392 -77.0781 186° South 257 296 15,000  Level New York Center
Thu 11:10:09 AM 40.5633 -77.0900 187° South 257 296 15,000  Level New York Center
Thu 11:11:09 AM 40.4983 -77.1006 187° South 257 296 15,000 -427 Level New York Center
Thu 11:13:40 AM 40.3167 -77.1333 188° South 270 311 13,500 -757 Descending Potomac TRACON
Thu 11:14:35 AM 40.2333 -77.1333 180° South 276 318 12,400 -1,148 Descending Potomac TRACON
Thu 11:15:35 AM 40.1667 -77.1667 201° Southwest 275 316 11,300 -1,091 Descending Potomac TRACON
Thu 11:16:36 AM 40.0833 -77.1833 189° South 275 316 10,200 -1,041 Descending Potomac TRACON
Thu 11:17:36 AM 40.0167 -77.2167 201° Southwest 270 311 9,200 -650 Descending Potomac TRACON
Thu 11:18:36 AM 39.9333 -77.2333 189° South 264 304 8,900 -198 Descending Potomac TRACON
Thu 11:19:37 AM 39.8667 -77.2667 201° Southwest 255 293 8,800 -446 Descending Potomac TRACON
Thu 11:20:37 AM 39.8000 -77.2833 191° South 269 310 8,000 -450 Descending Potomac TRACON
Thu 11:21:37 AM 39.7333 -77.3000 191° South 259 298 7,900  Descending Potomac TRACON
Thu 11:22:32 AM 39.6667 -77.3167 191° South 256 295 8,000 52 Climbing Potomac TRACON
Thu 11:23:32 AM 39.6000 -77.3333 191° South 260 299 8,000 -347 Level Potomac TRACON
Thu 11:24:33 AM 39.5333 -77.3500 191° South 260 299 7,300 -545 Descending Potomac TRACON
Thu 11:25:33 AM 39.4500 -77.3667 189° South 265 305 6,900 -350 Descending Potomac TRACON
Thu 11:26:33 AM 39.3833 -77.3667 180° South 260 299 6,600 -793 Descending Potomac TRACON
Thu 11:27:34 AM 39.3167 -77.3667 180° South 262 302 5,300 -942 Descending Potomac TRACON
Thu 11:28:34 AM 39.2333 -77.3667 180° South 248 285 4,700 -700 Descending Potomac TRACON
Thu 11:29:34 AM 39.1833 -77.3667 180° South 218 251 3,900 -350 Descending Potomac TRACON
Thu 11:30:34 AM 39.1167 -77.3500 169° South 238 274 4,000  Climbing Potomac TRACON
Thu 11:31:35 AM 39.0500 -77.3500 180° South 246 283 3,900 -50 Descending Potomac TRACON
Thu 11:32:35 AM 38.9667 -77.3500 180° South 253 291 3,900 -50 Level Potomac TRACON
Thu 11:33:36 AM 38.9000 -77.3500 180° South 253 291 3,800 -595 Descending Potomac TRACON
Thu 11:34:36 AM 38.8500 -77.3667 195° South 210 242 2,700 -900 Descending Potomac TRACON
Thu 11:35:36 AM 38.8000 -77.3833 195° South 211 243 2,000 -350 Descending Potomac TRACON
Thu 11:36:36 AM 38.8333 -77.4333 311° West 174 200 2,000 -397 Level Potomac TRACON
Thu 11:37:37 AM 38.8833 -77.4333 360° North 142 163 1,200 -744 Descending Potomac TRACON
Thu 11:38:37 AM 38.9167 -77.4333 360° North 124 143 500 -700 Descending Potomac TRACON

Login

Don't have an account? Register now (free) for customized features, flight alerts, and more!